sensor_id;sensor_type;location;lat;lon;timestamp;temperature;humidity
75155;HTU21D;63735;44.730;37.818;2023-07-02T00:00:30;21.96;81.17
75155;HTU21D;63735;44.730;37.818;2023-07-02T00:02:55;22.02;81.02
75155;HTU21D;63735;44.730;37.818;2023-07-02T00:05:21;22.11;80.85
75155;HTU21D;63735;44.730;37.818;2023-07-02T00:07:47;22.21;80.59
75155;HTU21D;63735;44.730;37.818;2023-07-02T00:10:13;22.31;80.31
75155;HTU21D;63735;44.730;37.818;2023-07-02T00:12:39;22.37;80.06
75155;HTU21D;63735;44.730;37.818;2023-07-02T00:15:05;22.37;79.93
75155;HTU21D;63735;44.730;37.818;2023-07-02T00:17:31;22.39;79.83
75155;HTU21D;63735;44.730;37.818;2023-07-02T00:19:57;22.38;79.69
75155;HTU21D;63735;44.730;37.818;2023-07-02T00:22:31;22.38;79.56
75155;HTU21D;63735;44.730;37.818;2023-07-02T00:25:02;22.40;79.41
75155;HTU21D;63735;44.730;37.818;2023-07-02T00:27:27;22.41;79.30
75155;HTU21D;63735;44.730;37.818;2023-07-02T00:29:53;22.40;79.19
75155;HTU21D;63735;44.730;37.818;2023-07-02T00:32:19;22.40;79.11
75155;HTU21D;63735;44.730;37.818;2023-07-02T00:34:45;22.39;79.04
75155;HTU21D;63735;44.730;37.818;2023-07-02T00:37:11;22.36;79.03
75155;HTU21D;63735;44.730;37.818;2023-07-02T00:39:37;22.34;78.96
75155;HTU21D;63735;44.730;37.818;2023-07-02T00:42:03;22.34;78.96
75155;HTU21D;63735;44.730;37.818;2023-07-02T00:44:30;22.31;78.98
75155;HTU21D;63735;44.730;37.818;2023-07-02T00:46:56;22.29;79.01
75155;HTU21D;63735;44.730;37.818;2023-07-02T00:49:22;22.26;79.05
75155;HTU21D;63735;44.730;37.818;2023-07-02T00:51:49;22.23;79.09
75155;HTU21D;63735;44.730;37.818;2023-07-02T00:54:15;22.21;79.12
75155;HTU21D;63735;44.730;37.818;2023-07-02T00:56:40;22.19;79.17
75155;HTU21D;63735;44.730;37.818;2023-07-02T00:59:06;22.17;79.20
75155;HTU21D;63735;44.730;37.818;2023-07-02T01:01:33;22.17;79.24
75155;HTU21D;63735;44.730;37.818;2023-07-02T01:04:06;22.13;79.29
75155;HTU21D;63735;44.730;37.818;2023-07-02T01:06:35;22.12;79.33
75155;HTU21D;63735;44.730;37.818;2023-07-02T01:09:03;22.10;79.37
75155;HTU21D;63735;44.730;37.818;2023-07-02T01:14:02;22.08;79.49
75155;HTU21D;63735;44.730;37.818;2023-07-02T01:16:30;22.09;79.49
75155;HTU21D;63735;44.730;37.818;2023-07-02T01:19:01;22.08;79.49
75155;HTU21D;63735;44.730;37.818;2023-07-02T01:21:32;22.07;79.54
75155;HTU21D;63735;44.730;37.818;2023-07-02T01:24:00;22.06;79.57
75155;HTU21D;63735;44.730;37.818;2023-07-02T01:26:30;22.05;79.62
75155;HTU21D;63735;44.730;37.818;2023-07-02T01:29:20;22.03;79.63
75155;HTU21D;63735;44.730;37.818;2023-07-02T01:31:47;22.05;79.54
75155;HTU21D;63735;44.730;37.818;2023-07-02T01:34:13;22.05;79.50
75155;HTU21D;63735;44.730;37.818;2023-07-02T01:36:40;22.05;79.53
75155;HTU21D;63735;44.730;37.818;2023-07-02T01:39:06;22.06;79.52
75155;HTU21D;63735;44.730;37.818;2023-07-02T01:41:41;22.07;79.51
75155;HTU21D;63735;44.730;37.818;2023-07-02T01:44:08;22.06;79.46
75155;HTU21D;63735;44.730;37.818;2023-07-02T01:46:34;22.06;79.44
75155;HTU21D;63735;44.730;37.818;2023-07-02T01:49:00;22.06;79.40
75155;HTU21D;63735;44.730;37.818;2023-07-02T01:51:26;22.03;79.38
75155;HTU21D;63735;44.730;37.818;2023-07-02T01:53:51;22.02;79.39
75155;HTU21D;63735;44.730;37.818;2023-07-02T01:56:17;22.03;79.34
75155;HTU21D;63735;44.730;37.818;2023-07-02T01:58:43;22.04;79.25
75155;HTU21D;63735;44.730;37.818;2023-07-02T02:01:09;22.07;79.16
75155;HTU21D;63735;44.730;37.818;2023-07-02T02:03:35;22.06;79.15
75155;HTU21D;63735;44.730;37.818;2023-07-02T02:06:01;22.07;79.08
75155;HTU21D;63735;44.730;37.818;2023-07-02T02:08:27;22.09;79.01
75155;HTU21D;63735;44.730;37.818;2023-07-02T02:10:53;22.09;78.92
75155;HTU21D;63735;44.730;37.818;2023-07-02T02:13:19;22.11;78.82
75155;HTU21D;63735;44.730;37.818;2023-07-02T02:15:45;22.13;78.75
75155;HTU21D;63735;44.730;37.818;2023-07-02T02:18:11;22.14;78.67
75155;HTU21D;63735;44.730;37.818;2023-07-02T02:20:36;22.18;78.53
75155;HTU21D;63735;44.730;37.818;2023-07-02T02:23:02;22.18;78.45
75155;HTU21D;63735;44.730;37.818;2023-07-02T02:25:30;22.20;78.39
75155;HTU21D;63735;44.730;37.818;2023-07-02T02:27:56;22.20;78.33
75155;HTU21D;63735;44.730;37.818;2023-07-02T02:30:22;22.20;78.31
75155;HTU21D;63735;44.730;37.818;2023-07-02T02:32:49;22.22;78.25
75155;HTU21D;63735;44.730;37.818;2023-07-02T02:35:15;22.21;78.20
75155;HTU21D;63735;44.730;37.818;2023-07-02T02:37:41;22.24;78.14
75155;HTU21D;63735;44.730;37.818;2023-07-02T02:40:08;22.26;78.07
75155;HTU21D;63735;44.730;37.818;2023-07-02T02:42:39;22.25;77.97
75155;HTU21D;63735;44.730;37.818;2023-07-02T02:45:05;22.23;77.99
75155;HTU21D;63735;44.730;37.818;2023-07-02T02:47:31;22.22;77.98
75155;HTU21D;63735;44.730;37.818;2023-07-02T02:49:57;22.22;77.91
75155;HTU21D;63735;44.730;37.818;2023-07-02T02:52:23;22.22;77.89
75155;HTU21D;63735;44.730;37.818;2023-07-02T02:54:50;22.23;77.88
75155;HTU21D;63735;44.730;37.818;2023-07-02T02:57:15;22.23;77.81
75155;HTU21D;63735;44.730;37.818;2023-07-02T02:59:41;22.28;77.71
75155;HTU21D;63735;44.730;37.818;2023-07-02T03:02:07;22.34;77.59
75155;HTU21D;63735;44.730;37.818;2023-07-02T03:04:34;22.37;77.44
75155;HTU21D;63735;44.730;37.818;2023-07-02T03:07:00;22.38;77.37
75155;HTU21D;63735;44.730;37.818;2023-07-02T03:09:26;22.41;77.31
75155;HTU21D;63735;44.730;37.818;2023-07-02T03:11:52;22.44;77.23
75155;HTU21D;63735;44.730;37.818;2023-07-02T03:14:18;22.48;77.20
75155;HTU21D;63735;44.730;37.818;2023-07-02T03:16:44;22.51;77.09
75155;HTU21D;63735;44.730;37.818;2023-07-02T03:19:11;22.57;76.96
75155;HTU21D;63735;44.730;37.818;2023-07-02T03:21:43;22.62;76.86
75155;HTU21D;63735;44.730;37.818;2023-07-02T03:24:10;22.64;76.80
75155;HTU21D;63735;44.730;37.818;2023-07-02T03:26:42;22.67;76.69
75155;HTU21D;63735;44.730;37.818;2023-07-02T03:29:09;22.66;76.67
75155;HTU21D;63735;44.730;37.818;2023-07-02T03:31:35;22.69;76.63
75155;HTU21D;63735;44.730;37.818;2023-07-02T03:34:07;22.75;76.48
75155;HTU21D;63735;44.730;37.818;2023-07-02T03:36:33;22.79;76.38
75155;HTU21D;63735;44.730;37.818;2023-07-02T03:38:59;22.81;76.27
75155;HTU21D;63735;44.730;37.818;2023-07-02T03:41:24;22.84;76.24
75155;HTU21D;63735;44.730;37.818;2023-07-02T03:43:51;22.90;76.15
75155;HTU21D;63735;44.730;37.818;2023-07-02T03:46:16;22.90;76.02
75155;HTU21D;63735;44.730;37.818;2023-07-02T03:48:42;22.92;75.99
75155;HTU21D;63735;44.730;37.818;2023-07-02T03:51:08;22.99;75.83
75155;HTU21D;63735;44.730;37.818;2023-07-02T03:53:34;23.00;75.67
75155;HTU21D;63735;44.730;37.818;2023-07-02T03:56:00;23.00;75.57
75155;HTU21D;63735;44.730;37.818;2023-07-02T03:58:26;23.00;75.50
75155;HTU21D;63735;44.730;37.818;2023-07-02T04:00:52;23.02;75.44
75155;HTU21D;63735;44.730;37.818;2023-07-02T04:03:18;23.11;75.16
75155;HTU21D;63735;44.730;37.818;2023-07-02T04:05:44;23.13;74.96
75155;HTU21D;63735;44.730;37.818;2023-07-02T04:08:10;23.18;74.87
75155;HTU21D;63735;44.730;37.818;2023-07-02T04:10:36;23.25;74.63
75155;HTU21D;63735;44.730;37.818;2023-07-02T04:13:02;23.27;74.44
75155;HTU21D;63735;44.730;37.818;2023-07-02T04:15:28;23.31;74.42
75155;HTU21D;63735;44.730;37.818;2023-07-02T04:17:54;23.34;74.36
75155;HTU21D;63735;44.730;37.818;2023-07-02T04:20:20;23.34;74.38
75155;HTU21D;63735;44.730;37.818;2023-07-02T04:22:47;23.31;74.41
75155;HTU21D;63735;44.730;37.818;2023-07-02T04:25:15;23.35;74.32
75155;HTU21D;63735;44.730;37.818;2023-07-02T04:27:41;23.37;74.12
75155;HTU21D;63735;44.730;37.818;2023-07-02T04:30:09;23.32;74.12
75155;HTU21D;63735;44.730;37.818;2023-07-02T04:32:36;23.31;74.15
75155;HTU21D;63735;44.730;37.818;2023-07-02T04:35:02;23.31;74.06
75155;HTU21D;63735;44.730;37.818;2023-07-02T04:37:28;23.27;74.06
75155;HTU21D;63735;44.730;37.818;2023-07-02T04:39:54;23.21;74.13
75155;HTU21D;63735;44.730;37.818;2023-07-02T04:42:20;23.21;74.15
75155;HTU21D;63735;44.730;37.818;2023-07-02T04:44:46;23.24;74.09
75155;HTU21D;63735;44.730;37.818;2023-07-02T04:47:11;23.36;73.85
75155;HTU21D;63735;44.730;37.818;2023-07-02T04:49:38;23.42;73.60
75155;HTU21D;63735;44.730;37.818;2023-07-02T04:52:04;23.42;73.50
75155;HTU21D;63735;44.730;37.818;2023-07-02T04:54:30;23.36;73.56
75155;HTU21D;63735;44.730;37.818;2023-07-02T04:56:56;23.35;73.70
75155;HTU21D;63735;44.730;37.818;2023-07-02T04:59:24;23.42;73.54
75155;HTU21D;63735;44.730;37.818;2023-07-02T05:01:50;23.47;73.41
75155;HTU21D;63735;44.730;37.818;2023-07-02T05:04:16;23.54;73.29
75155;HTU21D;63735;44.730;37.818;2023-07-02T05:06:42;23.60;73.13
75155;HTU21D;63735;44.730;37.818;2023-07-02T05:09:08;23.60;73.16
75155;HTU21D;63735;44.730;37.818;2023-07-02T05:11:34;23.61;73.12
75155;HTU21D;63735;44.730;37.818;2023-07-02T05:13:59;23.67;73.04
75155;HTU21D;63735;44.730;37.818;2023-07-02T05:16:25;23.73;72.93
75155;HTU21D;63735;44.730;37.818;2023-07-02T05:18:51;23.81;72.80
75155;HTU21D;63735;44.730;37.818;2023-07-02T05:21:18;23.86;72.69
75155;HTU21D;63735;44.730;37.818;2023-07-02T05:23:44;23.86;72.61
75155;HTU21D;63735;44.730;37.818;2023-07-02T05:26:10;23.85;72.41
75155;HTU21D;63735;44.730;37.818;2023-07-02T05:28:36;23.90;72.38
75155;HTU21D;63735;44.730;37.818;2023-07-02T05:31:02;23.97;72.42
75155;HTU21D;63735;44.730;37.818;2023-07-02T05:33:28;24.14;72.25
75155;HTU21D;63735;44.730;37.818;2023-07-02T05:35:53;24.18;72.03
75155;HTU21D;63735;44.730;37.818;2023-07-02T05:38:19;24.23;71.84
75155;HTU21D;63735;44.730;37.818;2023-07-02T05:40:45;24.30;71.77
75155;HTU21D;63735;44.730;37.818;2023-07-02T05:43:11;24.43;71.52
75155;HTU21D;63735;44.730;37.818;2023-07-02T05:45:37;24.46;71.42
75155;HTU21D;63735;44.730;37.818;2023-07-02T05:48:03;24.43;71.18
75155;HTU21D;63735;44.730;37.818;2023-07-02T05:50:29;24.35;71.48
75155;HTU21D;63735;44.730;37.818;2023-07-02T05:52:55;24.40;71.58
75155;HTU21D;63735;44.730;37.818;2023-07-02T05:55:21;24.42;71.61
75155;HTU21D;63735;44.730;37.818;2023-07-02T05:57:47;24.42;71.68
75155;HTU21D;63735;44.730;37.818;2023-07-02T06:00:13;24.56;71.46
75155;HTU21D;63735;44.730;37.818;2023-07-02T06:02:39;24.57;71.45
75155;HTU21D;63735;44.730;37.818;2023-07-02T06:05:05;24.51;71.06
75155;HTU21D;63735;44.730;37.818;2023-07-02T06:07:31;24.35;71.23
75155;HTU21D;63735;44.730;37.818;2023-07-02T06:09:57;24.30;71.45
75155;HTU21D;63735;44.730;37.818;2023-07-02T06:12:23;24.40;71.64
75155;HTU21D;63735;44.730;37.818;2023-07-02T06:14:49;24.48;71.18
75155;HTU21D;63735;44.730;37.818;2023-07-02T06:17:15;24.40;71.12
75155;HTU21D;63735;44.730;37.818;2023-07-02T06:19:41;24.39;71.45
75155;HTU21D;63735;44.730;37.818;2023-07-02T06:22:07;24.56;71.36
75155;HTU21D;63735;44.730;37.818;2023-07-02T06:24:33;24.71;71.18
75155;HTU21D;63735;44.730;37.818;2023-07-02T06:26:59;24.87;70.87
75155;HTU21D;63735;44.730;37.818;2023-07-02T06:29:25;25.01;70.85
75155;HTU21D;63735;44.730;37.818;2023-07-02T06:31:51;25.10;70.67
75155;HTU21D;63735;44.730;37.818;2023-07-02T06:34:17;25.18;70.55
75155;HTU21D;63735;44.730;37.818;2023-07-02T06:36:43;25.47;69.92
75155;HTU21D;63735;44.730;37.818;2023-07-02T06:39:09;25.64;69.18
75155;HTU21D;63735;44.730;37.818;2023-07-02T06:41:35;25.93;68.74
75155;HTU21D;63735;44.730;37.818;2023-07-02T06:44:02;26.07;67.81
75155;HTU21D;63735;44.730;37.818;2023-07-02T06:46:28;26.10;67.01
75155;HTU21D;63735;44.730;37.818;2023-07-02T06:48:55;26.41;66.11
75155;HTU21D;63735;44.730;37.818;2023-07-02T06:51:21;27.15;64.24
75155;HTU21D;63735;44.730;37.818;2023-07-02T06:53:47;27.68;61.93
75155;HTU21D;63735;44.730;37.818;2023-07-02T06:56:13;28.24;60.11
75155;HTU21D;63735;44.730;37.818;2023-07-02T06:58:42;29.09;57.95
75155;HTU21D;63735;44.730;37.818;2023-07-02T07:01:08;30.10;55.70
75155;HTU21D;63735;44.730;37.818;2023-07-02T07:03:37;30.85;53.60
75155;HTU21D;63735;44.730;37.818;2023-07-02T07:06:03;31.23;52.73
75155;HTU21D;63735;44.730;37.818;2023-07-02T07:08:29;31.19;52.13
75155;HTU21D;63735;44.730;37.818;2023-07-02T07:10:55;31.14;52.18
75155;HTU21D;63735;44.730;37.818;2023-07-02T07:13:22;31.05;52.36
75155;HTU21D;63735;44.730;37.818;2023-07-02T07:15:50;30.94;52.65
75155;HTU21D;63735;44.730;37.818;2023-07-02T07:18:16;30.98;52.09
75155;HTU21D;63735;44.730;37.818;2023-07-02T07:20:43;31.09;52.09
75155;HTU21D;63735;44.730;37.818;2023-07-02T07:23:10;31.01;52.02
75155;HTU21D;63735;44.730;37.818;2023-07-02T07:25:36;31.22;52.20
75155;HTU21D;63735;44.730;37.818;2023-07-02T07:28:02;31.07;52.15
75155;HTU21D;63735;44.730;37.818;2023-07-02T07:30:27;30.54;53.27
75155;HTU21D;63735;44.730;37.818;2023-07-02T07:32:54;29.74;54.86
75155;HTU21D;63735;44.730;37.818;2023-07-02T07:35:21;29.12;56.91
75155;HTU21D;63735;44.730;37.818;2023-07-02T07:37:47;28.64;58.66
75155;HTU21D;63735;44.730;37.818;2023-07-02T07:40:14;28.15;60.45
75155;HTU21D;63735;44.730;37.818;2023-07-02T07:42:42;27.68;61.47
75155;HTU21D;63735;44.730;37.818;2023-07-02T07:45:10;27.37;62.64
75155;HTU21D;63735;44.730;37.818;2023-07-02T07:47:37;27.04;63.31
75155;HTU21D;63735;44.730;37.818;2023-07-02T07:50:03;26.63;64.08
75155;HTU21D;63735;44.730;37.818;2023-07-02T07:52:34;26.31;64.91
75155;HTU21D;63735;44.730;37.818;2023-07-02T07:55:00;26.09;65.43
75155;HTU21D;63735;44.730;37.818;2023-07-02T07:57:26;25.96;65.82
75155;HTU21D;63735;44.730;37.818;2023-07-02T07:59:52;26.01;65.87
75155;HTU21D;63735;44.730;37.818;2023-07-02T08:02:17;26.04;65.91
75155;HTU21D;63735;44.730;37.818;2023-07-02T08:04:43;26.03;66.02
75155;HTU21D;63735;44.730;37.818;2023-07-02T08:07:09;25.91;66.55
75155;HTU21D;63735;44.730;37.818;2023-07-02T08:09:35;26.01;66.52
75155;HTU21D;63735;44.730;37.818;2023-07-02T08:12:01;26.02;66.11
75155;HTU21D;63735;44.730;37.818;2023-07-02T08:14:28;25.98;66.42
75155;HTU21D;63735;44.730;37.818;2023-07-02T08:16:54;26.10;66.65
75155;HTU21D;63735;44.730;37.818;2023-07-02T08:19:20;26.23;66.19
75155;HTU21D;63735;44.730;37.818;2023-07-02T08:21:47;26.06;66.25
75155;HTU21D;63735;44.730;37.818;2023-07-02T08:24:13;26.06;66.53
75155;HTU21D;63735;44.730;37.818;2023-07-02T08:26:39;26.16;66.59
75155;HTU21D;63735;44.730;37.818;2023-07-02T08:29:05;26.28;66.40
75155;HTU21D;63735;44.730;37.818;2023-07-02T08:31:31;26.33;66.66
75155;HTU21D;63735;44.730;37.818;2023-07-02T08:33:57;26.49;66.27
75155;HTU21D;63735;44.730;37.818;2023-07-02T08:36:23;26.65;66.17
75155;HTU21D;63735;44.730;37.818;2023-07-02T08:38:49;26.89;65.35
75155;HTU21D;63735;44.730;37.818;2023-07-02T08:41:15;26.90;64.88
75155;HTU21D;63735;44.730;37.818;2023-07-02T08:43:41;26.79;65.19
75155;HTU21D;63735;44.730;37.818;2023-07-02T08:46:09;26.60;65.43
75155;HTU21D;63735;44.730;37.818;2023-07-02T08:48:35;26.48;65.22
75155;HTU21D;63735;44.730;37.818;2023-07-02T08:51:03;26.36;65.38
75155;HTU21D;63735;44.730;37.818;2023-07-02T08:53:29;26.22;65.54
75155;HTU21D;63735;44.730;37.818;2023-07-02T08:56:00;26.33;65.74
75155;HTU21D;63735;44.730;37.818;2023-07-02T08:58:26;26.62;64.77
75155;HTU21D;63735;44.730;37.818;2023-07-02T09:01:12;26.32;65.26
75155;HTU21D;63735;44.730;37.818;2023-07-02T09:03:39;26.10;65.78
75155;HTU21D;63735;44.730;37.818;2023-07-02T09:06:09;26.12;66.12
75155;HTU21D;63735;44.730;37.818;2023-07-02T09:08:36;26.20;65.82
75155;HTU21D;63735;44.730;37.818;2023-07-02T09:11:07;26.30;66.11
75155;HTU21D;63735;44.730;37.818;2023-07-02T09:13:47;26.48;65.72
75155;HTU21D;63735;44.730;37.818;2023-07-02T09:16:31;26.83;65.22
75155;HTU21D;63735;44.730;37.818;2023-07-02T09:18:59;26.84;64.54
75155;HTU21D;63735;44.730;37.818;2023-07-02T09:21:48;26.58;64.84
75155;HTU21D;63735;44.730;37.818;2023-07-02T09:24:22;26.66;65.13
75155;HTU21D;63735;44.730;37.818;2023-07-02T09:26:52;26.78;64.88
75155;HTU21D;63735;44.730;37.818;2023-07-02T09:29:28;26.77;64.88
75155;HTU21D;63735;44.730;37.818;2023-07-02T09:32:01;26.63;65.31
75155;HTU21D;63735;44.730;37.818;2023-07-02T09:34:36;26.77;65.55
75155;HTU21D;63735;44.730;37.818;2023-07-02T09:37:03;26.95;65.25
75155;HTU21D;63735;44.730;37.818;2023-07-02T09:39:32;27.01;64.65
75155;HTU21D;63735;44.730;37.818;2023-07-02T09:42:07;26.81;64.90
75155;HTU21D;63735;44.730;37.818;2023-07-02T09:44:35;26.58;65.03
75155;HTU21D;63735;44.730;37.818;2023-07-02T09:47:03;26.56;65.30
75155;HTU21D;63735;44.730;37.818;2023-07-02T09:49:38;26.68;65.60
75155;HTU21D;63735;44.730;37.818;2023-07-02T09:52:10;26.89;64.83
75155;HTU21D;63735;44.730;37.818;2023-07-02T09:54:37;26.89;65.02
75155;HTU21D;63735;44.730;37.818;2023-07-02T09:57:04;26.86;64.59
75155;HTU21D;63735;44.730;37.818;2023-07-02T09:59:31;26.71;64.52
75155;HTU21D;63735;44.730;37.818;2023-07-02T10:01:57;26.54;64.96
75155;HTU21D;63735;44.730;37.818;2023-07-02T10:04:24;26.43;65.35
75155;HTU21D;63735;44.730;37.818;2023-07-02T10:06:52;26.55;65.38
75155;HTU21D;63735;44.730;37.818;2023-07-02T10:09:19;26.48;65.41
75155;HTU21D;63735;44.730;37.818;2023-07-02T10:11:46;26.40;65.73
75155;HTU21D;63735;44.730;37.818;2023-07-02T10:14:12;26.62;65.46
75155;HTU21D;63735;44.730;37.818;2023-07-02T10:16:52;26.79;64.87
75155;HTU21D;63735;44.730;37.818;2023-07-02T10:19:19;26.98;64.85
75155;HTU21D;63735;44.730;37.818;2023-07-02T10:21:45;27.19;64.48
75155;HTU21D;63735;44.730;37.818;2023-07-02T10:24:16;27.16;64.12
75155;HTU21D;63735;44.730;37.818;2023-07-02T10:26:54;26.91;64.29
75155;HTU21D;63735;44.730;37.818;2023-07-02T10:29:23;26.69;64.68
75155;HTU21D;63735;44.730;37.818;2023-07-02T10:31:50;26.62;64.36
75155;HTU21D;63735;44.730;37.818;2023-07-02T10:34:31;26.72;64.27
75155;HTU21D;63735;44.730;37.818;2023-07-02T10:36:57;26.84;63.76
75155;HTU21D;63735;44.730;37.818;2023-07-02T10:39:23;26.65;64.29
75155;HTU21D;63735;44.730;37.818;2023-07-02T10:41:51;26.77;64.44
75155;HTU21D;63735;44.730;37.818;2023-07-02T10:44:17;26.71;64.42
75155;HTU21D;63735;44.730;37.818;2023-07-02T10:46:47;26.73;64.34
75155;HTU21D;63735;44.730;37.818;2023-07-02T10:49:16;26.90;64.13
75155;HTU21D;63735;44.730;37.818;2023-07-02T10:51:42;26.97;63.89
75155;HTU21D;63735;44.730;37.818;2023-07-02T10:54:08;26.96;63.45
75155;HTU21D;63735;44.730;37.818;2023-07-02T10:56:35;26.72;63.86
75155;HTU21D;63735;44.730;37.818;2023-07-02T10:59:01;26.60;64.34
75155;HTU21D;63735;44.730;37.818;2023-07-02T11:01:29;26.73;64.59
75155;HTU21D;63735;44.730;37.818;2023-07-02T11:06:22;26.89;63.66
75155;HTU21D;63735;44.730;37.818;2023-07-02T11:08:48;26.71;64.08
75155;HTU21D;63735;44.730;37.818;2023-07-02T11:11:14;26.63;64.00
75155;HTU21D;63735;44.730;37.818;2023-07-02T11:13:47;26.45;64.11
75155;HTU21D;63735;44.730;37.818;2023-07-02T11:16:32;26.30;64.68
75155;HTU21D;63735;44.730;37.818;2023-07-02T11:19:08;26.39;64.27
75155;HTU21D;63735;44.730;37.818;2023-07-02T11:21:35;26.35;63.94
75155;HTU21D;63735;44.730;37.818;2023-07-02T11:24:08;26.13;64.22
75155;HTU21D;63735;44.730;37.818;2023-07-02T11:26:38;26.20;64.47
75155;HTU21D;63735;44.730;37.818;2023-07-02T11:29:07;26.21;63.71
75155;HTU21D;63735;44.730;37.818;2023-07-02T11:31:36;26.16;63.96
75155;HTU21D;63735;44.730;37.818;2023-07-02T11:34:14;26.18;63.92
75155;HTU21D;63735;44.730;37.818;2023-07-02T11:36:40;26.23;63.94
75155;HTU21D;63735;44.730;37.818;2023-07-02T11:39:06;26.21;63.50
75155;HTU21D;63735;44.730;37.818;2023-07-02T11:41:40;26.25;63.71
75155;HTU21D;63735;44.730;37.818;2023-07-02T11:44:07;26.34;63.66
75155;HTU21D;63735;44.730;37.818;2023-07-02T11:46:33;26.23;63.57
75155;HTU21D;63735;44.730;37.818;2023-07-02T11:49:03;26.09;64.08
75155;HTU21D;63735;44.730;37.818;2023-07-02T11:51:36;26.12;64.14
75155;HTU21D;63735;44.730;37.818;2023-07-02T11:54:03;25.94;64.30
75155;HTU21D;63735;44.730;37.818;2023-07-02T11:56:30;25.83;64.62
75155;HTU21D;63735;44.730;37.818;2023-07-02T11:58:56;25.84;64.57
75155;HTU21D;63735;44.730;37.818;2023-07-02T12:01:22;25.91;64.41
75155;HTU21D;63735;44.730;37.818;2023-07-02T12:03:49;25.79;64.47
75155;HTU21D;63735;44.730;37.818;2023-07-02T12:06:15;25.69;64.64
75155;HTU21D;63735;44.730;37.818;2023-07-02T12:08:41;25.72;64.98
75155;HTU21D;63735;44.730;37.818;2023-07-02T12:11:07;25.82;64.87
75155;HTU21D;63735;44.730;37.818;2023-07-02T12:13:33;25.68;64.97
75155;HTU21D;63735;44.730;37.818;2023-07-02T12:15:59;25.61;65.40
75155;HTU21D;63735;44.730;37.818;2023-07-02T12:18:26;25.56;65.65
75155;HTU21D;63735;44.730;37.818;2023-07-02T12:20:52;25.59;65.78
75155;HTU21D;63735;44.730;37.818;2023-07-02T12:23:18;25.64;65.50
75155;HTU21D;63735;44.730;37.818;2023-07-02T12:25:44;25.69;65.26
75155;HTU21D;63735;44.730;37.818;2023-07-02T12:28:10;25.80;65.24
75155;HTU21D;63735;44.730;37.818;2023-07-02T12:30:36;25.97;64.98
75155;HTU21D;63735;44.730;37.818;2023-07-02T12:33:02;25.89;65.01
75155;HTU21D;63735;44.730;37.818;2023-07-02T12:35:28;25.73;65.43
75155;HTU21D;63735;44.730;37.818;2023-07-02T12:37:54;25.71;65.76
75155;HTU21D;63735;44.730;37.818;2023-07-02T12:40:20;25.76;65.28
75155;HTU21D;63735;44.730;37.818;2023-07-02T12:42:47;25.79;65.34
75155;HTU21D;63735;44.730;37.818;2023-07-02T12:45:14;25.89;64.92
75155;HTU21D;63735;44.730;37.818;2023-07-02T12:47:41;25.86;65.11
75155;HTU21D;63735;44.730;37.818;2023-07-02T12:50:08;25.89;65.11
75155;HTU21D;63735;44.730;37.818;2023-07-02T12:52:35;25.88;65.21
75155;HTU21D;63735;44.730;37.818;2023-07-02T12:55:03;25.84;65.21
75155;HTU21D;63735;44.730;37.818;2023-07-02T12:57:30;25.80;65.28
75155;HTU21D;63735;44.730;37.818;2023-07-02T12:59:56;25.65;65.51
75155;HTU21D;63735;44.730;37.818;2023-07-02T13:02:23;25.50;65.63
75155;HTU21D;63735;44.730;37.818;2023-07-02T13:04:50;25.38;65.86
75155;HTU21D;63735;44.730;37.818;2023-07-02T13:07:16;25.36;65.98
75155;HTU21D;63735;44.730;37.818;2023-07-02T13:09:43;25.40;65.98
75155;HTU21D;63735;44.730;37.818;2023-07-02T13:12:10;25.43;66.05
75155;HTU21D;63735;44.730;37.818;2023-07-02T13:14:37;25.46;66.13
75155;HTU21D;63735;44.730;37.818;2023-07-02T13:17:03;25.63;65.77
75155;HTU21D;63735;44.730;37.818;2023-07-02T13:19:31;25.65;65.67
75155;HTU21D;63735;44.730;37.818;2023-07-02T13:21:57;25.78;65.56
75155;HTU21D;63735;44.730;37.818;2023-07-02T13:24:24;25.79;65.03
75155;HTU21D;63735;44.730;37.818;2023-07-02T13:26:50;25.64;65.56
75155;HTU21D;63735;44.730;37.818;2023-07-02T13:29:16;25.58;65.73
75155;HTU21D;63735;44.730;37.818;2023-07-02T13:31:42;25.56;65.82
75155;HTU21D;63735;44.730;37.818;2023-07-02T13:34:08;25.40;66.14
75155;HTU21D;63735;44.730;37.818;2023-07-02T13:36:34;25.36;66.46
75155;HTU21D;63735;44.730;37.818;2023-07-02T13:39:00;25.54;66.20
75155;HTU21D;63735;44.730;37.818;2023-07-02T13:41:28;25.67;65.86
75155;HTU21D;63735;44.730;37.818;2023-07-02T13:43:56;25.73;65.71
75155;HTU21D;63735;44.730;37.818;2023-07-02T13:46:22;25.79;65.53
75155;HTU21D;63735;44.730;37.818;2023-07-02T13:48:48;25.76;65.59
75155;HTU21D;63735;44.730;37.818;2023-07-02T13:51:14;25.72;65.60
75155;HTU21D;63735;44.730;37.818;2023-07-02T13:53:40;25.71;65.37
75155;HTU21D;63735;44.730;37.818;2023-07-02T13:56:06;25.71;65.19
75155;HTU21D;63735;44.730;37.818;2023-07-02T14:01:24;25.53;65.44
75155;HTU21D;63735;44.730;37.818;2023-07-02T14:03:50;25.45;65.40
75155;HTU21D;63735;44.730;37.818;2023-07-02T14:06:17;25.37;65.26
75155;HTU21D;63735;44.730;37.818;2023-07-02T14:08:44;25.36;64.91
75155;HTU21D;63735;44.730;37.818;2023-07-02T14:11:10;25.30;64.76
75155;HTU21D;63735;44.730;37.818;2023-07-02T14:13:36;25.32;64.14
75155;HTU21D;63735;44.730;37.818;2023-07-02T14:16:02;25.34;63.97
75155;HTU21D;63735;44.730;37.818;2023-07-02T14:18:28;25.34;62.31
75155;HTU21D;63735;44.730;37.818;2023-07-02T14:20:55;25.30;61.52
75155;HTU21D;63735;44.730;37.818;2023-07-02T14:23:21;25.30;61.70
75155;HTU21D;63735;44.730;37.818;2023-07-02T14:25:47;25.38;61.51
75155;HTU21D;63735;44.730;37.818;2023-07-02T14:28:13;25.38;60.97
75155;HTU21D;63735;44.730;37.818;2023-07-02T14:30:39;25.34;60.57
75155;HTU21D;63735;44.730;37.818;2023-07-02T14:33:05;25.33;59.30
75155;HTU21D;63735;44.730;37.818;2023-07-02T14:35:31;25.25;59.15
75155;HTU21D;63735;44.730;37.818;2023-07-02T14:37:58;25.22;59.51
75155;HTU21D;63735;44.730;37.818;2023-07-02T14:40:24;25.19;59.51
75155;HTU21D;63735;44.730;37.818;2023-07-02T14:42:50;25.18;60.04
75155;HTU21D;63735;44.730;37.818;2023-07-02T14:45:16;25.13;60.28
75155;HTU21D;63735;44.730;37.818;2023-07-02T14:47:42;25.02;60.86
75155;HTU21D;63735;44.730;37.818;2023-07-02T14:50:08;24.93;61.70
75155;HTU21D;63735;44.730;37.818;2023-07-02T14:52:34;24.89;62.14
75155;HTU21D;63735;44.730;37.818;2023-07-02T14:55:02;24.83;62.85
75155;HTU21D;63735;44.730;37.818;2023-07-02T14:57:30;24.80;63.27
75155;HTU21D;63735;44.730;37.818;2023-07-02T14:59:56;24.80;63.28
75155;HTU21D;63735;44.730;37.818;2023-07-02T15:02:22;24.79;63.29
75155;HTU21D;63735;44.730;37.818;2023-07-02T15:04:48;24.76;63.55
75155;HTU21D;63735;44.730;37.818;2023-07-02T15:07:14;24.74;63.80
75155;HTU21D;63735;44.730;37.818;2023-07-02T15:09:40;24.65;64.61